Weather at Meridian Park Hospital Heliport

Public forecast

Using degrees Fahrenheit for public forecast. Weather courtesy of forecast.io.

Closest aviation weather report (METAR) to Meridian Park Hospital Heliport

Closest report is Aurora State Airport, 8.0 nm (14.7 km) S. Retrieved 2021/06/19 21:53 UTC (9 minutes ago):

KUAO 192153Z VRB03KT 10SM CLR 26/10 A3004 RMK AO2 SLP172 T02560100

Closest aviation forecast (TAF) to Meridian Park Hospital Heliport

Closest forecast is Aurora State Airport, 8.0 nm (14.7 km) S. Retrieved 2021/06/19 18:38 UTC (3 hours ago):

TAF KUAO 191738Z 1918/2018 VRB04KT P6SM FEW250 FM192100 35007KT P6SM SKC FM200900 VRB04KT P6SM SKC